sensor_id;sensor_type;location;lat;lon;timestamp;P1;durP1;ratioP1;P2;durP2;ratioP2
23185;SDS011;11761;51.324;4.590;2023-02-05T00:00:20;42.53;;;19.45;;
23185;SDS011;11761;51.324;4.590;2023-02-05T00:02:46;41.75;;;19.77;;
23185;SDS011;11761;51.324;4.590;2023-02-05T00:05:12;46.80;;;19.67;;
23185;SDS011;11761;51.324;4.590;2023-02-05T00:07:38;52.15;;;20.48;;
23185;SDS011;11761;51.324;4.590;2023-02-05T00:10:04;40.78;;;19.70;;
23185;SDS011;11761;51.324;4.590;2023-02-05T00:12:30;44.22;;;20.75;;
23185;SDS011;11761;51.324;4.590;2023-02-05T00:14:56;47.10;;;21.27;;
23185;SDS011;11761;51.324;4.590;2023-02-05T00:17:22;42.45;;;19.90;;
23185;SDS011;11761;51.324;4.590;2023-02-05T00:19:48;40.42;;;20.10;;
23185;SDS011;11761;51.324;4.590;2023-02-05T00:22:14;41.97;;;19.85;;
23185;SDS011;11761;51.324;4.590;2023-02-05T00:24:40;45.42;;;20.48;;
23185;SDS011;11761;51.324;4.590;2023-02-05T00:27:06;44.33;;;19.40;;
23185;SDS011;11761;51.324;4.590;2023-02-05T00:29:34;47.03;;;20.15;;
23185;SDS011;11761;51.324;4.590;2023-02-05T00:32:00;42.90;;;20.40;;
23185;SDS011;11761;51.324;4.590;2023-02-05T00:34:26;38.78;;;19.15;;
23185;SDS011;11761;51.324;4.590;2023-02-05T00:36:52;38.05;;;18.55;;
23185;SDS011;11761;51.324;4.590;2023-02-05T00:39:18;41.13;;;19.27;;
23185;SDS011;11761;51.324;4.590;2023-02-05T00:41:44;45.63;;;21.52;;
23185;SDS011;11761;51.324;4.590;2023-02-05T00:44:10;42.97;;;21.23;;
23185;SDS011;11761;51.324;4.590;2023-02-05T00:46:36;47.85;;;22.48;;
23185;SDS011;11761;51.324;4.590;2023-02-05T00:49:02;50.92;;;22.85;;
23185;SDS011;11761;51.324;4.590;2023-02-05T00:51:28;52.05;;;22.13;;
23185;SDS011;11761;51.324;4.590;2023-02-05T00:53:54;46.00;;;21.45;;
23185;SDS011;11761;51.324;4.590;2023-02-05T00:56:20;48.08;;;21.25;;
23185;SDS011;11761;51.324;4.590;2023-02-05T00:58:46;49.00;;;22.42;;
23185;SDS011;11761;51.324;4.590;2023-02-05T01:01:14;43.25;;;20.75;;
23185;SDS011;11761;51.324;4.590;2023-02-05T01:03:41;48.50;;;21.63;;
23185;SDS011;11761;51.324;4.590;2023-02-05T01:06:07;44.95;;;21.15;;
23185;SDS011;11761;51.324;4.590;2023-02-05T01:08:34;45.28;;;20.83;;
23185;SDS011;11761;51.324;4.590;2023-02-05T01:11:00;46.60;;;20.73;;
23185;SDS011;11761;51.324;4.590;2023-02-05T01:13:30;43.20;;;20.60;;
23185;SDS011;11761;51.324;4.590;2023-02-05T01:15:56;46.90;;;20.88;;
23185;SDS011;11761;51.324;4.590;2023-02-05T01:18:22;43.42;;;19.92;;
23185;SDS011;11761;51.324;4.590;2023-02-05T01:20:48;42.42;;;20.33;;
23185;SDS011;11761;51.324;4.590;2023-02-05T01:23:14;40.90;;;19.77;;
23185;SDS011;11761;51.324;4.590;2023-02-05T01:25:40;43.88;;;19.83;;
23185;SDS011;11761;51.324;4.590;2023-02-05T01:28:06;43.83;;;19.92;;
23185;SDS011;11761;51.324;4.590;2023-02-05T01:30:32;40.28;;;19.88;;
23185;SDS011;11761;51.324;4.590;2023-02-05T01:32:58;40.83;;;18.95;;
23185;SDS011;11761;51.324;4.590;2023-02-05T01:35:24;37.38;;;18.42;;
23185;SDS011;11761;51.324;4.590;2023-02-05T01:37:50;35.88;;;17.90;;
23185;SDS011;11761;51.324;4.590;2023-02-05T01:40:17;36.72;;;17.10;;
23185;SDS011;11761;51.324;4.590;2023-02-05T01:42:43;40.78;;;17.33;;
23185;SDS011;11761;51.324;4.590;2023-02-05T01:47:50;33.95;;;17.08;;
23185;SDS011;11761;51.324;4.590;2023-02-05T01:50:25;34.85;;;16.25;;
23185;SDS011;11761;51.324;4.590;2023-02-05T01:52:59;34.22;;;16.42;;
23185;SDS011;11761;51.324;4.590;2023-02-05T01:55:31;34.20;;;15.98;;
23185;SDS011;11761;51.324;4.590;2023-02-05T01:57:59;30.42;;;15.75;;
23185;SDS011;11761;51.324;4.590;2023-02-05T02:00:26;27.60;;;15.30;;
23185;SDS011;11761;51.324;4.590;2023-02-05T02:02:52;34.08;;;16.15;;
23185;SDS011;11761;51.324;4.590;2023-02-05T02:05:18;34.85;;;16.15;;
23185;SDS011;11761;51.324;4.590;2023-02-05T02:07:44;32.80;;;15.27;;
23185;SDS011;11761;51.324;4.590;2023-02-05T02:10:11;32.25;;;16.73;;
23185;SDS011;11761;51.324;4.590;2023-02-05T02:12:40;34.60;;;15.65;;
23185;SDS011;11761;51.324;4.590;2023-02-05T02:15:09;28.73;;;15.15;;
23185;SDS011;11761;51.324;4.590;2023-02-05T02:17:40;27.45;;;15.68;;
23185;SDS011;11761;51.324;4.590;2023-02-05T02:20:16;32.50;;;16.98;;
23185;SDS011;11761;51.324;4.590;2023-02-05T02:22:57;28.55;;;16.20;;
23185;SDS011;11761;51.324;4.590;2023-02-05T02:26:10;30.52;;;15.07;;
23185;SDS011;11761;51.324;4.590;2023-02-05T02:28:35;27.02;;;14.35;;
23185;SDS011;11761;51.324;4.590;2023-02-05T02:31:11;26.75;;;14.63;;
23185;SDS011;11761;51.324;4.590;2023-02-05T02:38:58;26.92;;;12.85;;
23185;SDS011;11761;51.324;4.590;2023-02-05T02:41:45;26.45;;;12.82;;
23185;SDS011;11761;51.324;4.590;2023-02-05T02:44:19;27.02;;;11.88;;
23185;SDS011;11761;51.324;4.590;2023-02-05T02:46:55;20.20;;;11.05;;
23185;SDS011;11761;51.324;4.590;2023-02-05T02:49:25;23.92;;;11.40;;
23185;SDS011;11761;51.324;4.590;2023-02-05T02:51:56;20.67;;;11.00;;
23185;SDS011;11761;51.324;4.590;2023-02-05T02:54:26;20.35;;;10.43;;
23185;SDS011;11761;51.324;4.590;2023-02-05T02:56:53;19.42;;;10.80;;
23185;SDS011;11761;51.324;4.590;2023-02-05T02:59:22;16.67;;;10.38;;
23185;SDS011;11761;51.324;4.590;2023-02-05T03:01:51;19.23;;;9.75;;
23185;SDS011;11761;51.324;4.590;2023-02-05T03:04:23;19.38;;;9.73;;
23185;SDS011;11761;51.324;4.590;2023-02-05T03:06:54;19.00;;;9.93;;
23185;SDS011;11761;51.324;4.590;2023-02-05T03:12:37;22.73;;;9.48;;
23185;SDS011;11761;51.324;4.590;2023-02-05T03:15:03;18.73;;;8.70;;
23185;SDS011;11761;51.324;4.590;2023-02-05T03:17:32;15.05;;;8.40;;
23185;SDS011;11761;51.324;4.590;2023-02-05T03:20:07;15.55;;;8.70;;
23185;SDS011;11761;51.324;4.590;2023-02-05T03:22:35;12.90;;;7.80;;
23185;SDS011;11761;51.324;4.590;2023-02-05T03:25:02;14.60;;;7.82;;
23185;SDS011;11761;51.324;4.590;2023-02-05T03:27:29;14.73;;;7.50;;
23185;SDS011;11761;51.324;4.590;2023-02-05T03:29:55;14.27;;;6.18;;
23185;SDS011;11761;51.324;4.590;2023-02-05T03:35:40;12.20;;;5.60;;
23185;SDS011;11761;51.324;4.590;2023-02-05T03:41:18;11.93;;;5.25;;
23185;SDS011;11761;51.324;4.590;2023-02-05T03:44:09;9.55;;;5.25;;
23185;SDS011;11761;51.324;4.590;2023-02-05T03:46:44;11.98;;;5.22;;
23185;SDS011;11761;51.324;4.590;2023-02-05T03:49:18;8.63;;;4.93;;
23185;SDS011;11761;51.324;4.590;2023-02-05T03:52:00;14.88;;;5.60;;
23185;SDS011;11761;51.324;4.590;2023-02-05T03:59:52;14.75;;;6.15;;
23185;SDS011;11761;51.324;4.590;2023-02-05T04:02:20;15.65;;;6.35;;
23185;SDS011;11761;51.324;4.590;2023-02-05T04:04:47;14.48;;;6.07;;
23185;SDS011;11761;51.324;4.590;2023-02-05T04:07:13;14.65;;;5.88;;
23185;SDS011;11761;51.324;4.590;2023-02-05T04:09:40;19.77;;;6.55;;
23185;SDS011;11761;51.324;4.590;2023-02-05T04:12:06;15.30;;;6.38;;
23185;SDS011;11761;51.324;4.590;2023-02-05T04:14:32;16.55;;;7.53;;
23185;SDS011;11761;51.324;4.590;2023-02-05T04:16:58;15.43;;;7.13;;
23185;SDS011;11761;51.324;4.590;2023-02-05T04:19:24;18.10;;;7.75;;
23185;SDS011;11761;51.324;4.590;2023-02-05T04:21:49;16.83;;;7.65;;
23185;SDS011;11761;51.324;4.590;2023-02-05T04:24:15;16.52;;;7.80;;
23185;SDS011;11761;51.324;4.590;2023-02-05T04:26:41;15.80;;;8.80;;
23185;SDS011;11761;51.324;4.590;2023-02-05T04:29:07;23.17;;;9.48;;
23185;SDS011;11761;51.324;4.590;2023-02-05T04:31:33;19.60;;;9.50;;
23185;SDS011;11761;51.324;4.590;2023-02-05T04:33:59;22.05;;;9.80;;
23185;SDS011;11761;51.324;4.590;2023-02-05T04:36:25;20.80;;;9.95;;
23185;SDS011;11761;51.324;4.590;2023-02-05T04:38:54;19.42;;;10.23;;
23185;SDS011;11761;51.324;4.590;2023-02-05T04:41:20;19.77;;;11.27;;
23185;SDS011;11761;51.324;4.590;2023-02-05T04:43:45;18.23;;;10.63;;
23185;SDS011;11761;51.324;4.590;2023-02-05T04:46:11;23.88;;;11.48;;
23185;SDS011;11761;51.324;4.590;2023-02-05T04:48:38;25.75;;;10.70;;
23185;SDS011;11761;51.324;4.590;2023-02-05T04:51:04;33.28;;;12.25;;
23185;SDS011;11761;51.324;4.590;2023-02-05T04:53:35;28.27;;;12.93;;
23185;SDS011;11761;51.324;4.590;2023-02-05T04:56:02;25.63;;;13.23;;
23185;SDS011;11761;51.324;4.590;2023-02-05T04:58:30;22.15;;;12.82;;
23185;SDS011;11761;51.324;4.590;2023-02-05T05:00:56;25.58;;;13.50;;
23185;SDS011;11761;51.324;4.590;2023-02-05T05:03:22;27.40;;;13.73;;
23185;SDS011;11761;51.324;4.590;2023-02-05T05:05:48;27.75;;;14.10;;
23185;SDS011;11761;51.324;4.590;2023-02-05T05:08:14;26.52;;;13.52;;
23185;SDS011;11761;51.324;4.590;2023-02-05T05:10:40;23.88;;;14.40;;
23185;SDS011;11761;51.324;4.590;2023-02-05T05:13:06;26.33;;;14.48;;
23185;SDS011;11761;51.324;4.590;2023-02-05T05:15:33;29.65;;;13.98;;
23185;SDS011;11761;51.324;4.590;2023-02-05T05:17:59;26.70;;;13.60;;
23185;SDS011;11761;51.324;4.590;2023-02-05T05:20:25;29.85;;;15.10;;
23185;SDS011;11761;51.324;4.590;2023-02-05T05:22:51;25.02;;;13.93;;
23185;SDS011;11761;51.324;4.590;2023-02-05T05:25:17;29.83;;;14.55;;
23185;SDS011;11761;51.324;4.590;2023-02-05T05:27:43;30.77;;;14.55;;
23185;SDS011;11761;51.324;4.590;2023-02-05T05:30:09;23.88;;;13.18;;
23185;SDS011;11761;51.324;4.590;2023-02-05T05:32:36;27.23;;;14.07;;
23185;SDS011;11761;51.324;4.590;2023-02-05T05:35:03;26.92;;;13.20;;
23185;SDS011;11761;51.324;4.590;2023-02-05T05:37:29;21.33;;;11.90;;
23185;SDS011;11761;51.324;4.590;2023-02-05T05:39:55;22.60;;;11.75;;
23185;SDS011;11761;51.324;4.590;2023-02-05T05:42:40;21.05;;;11.10;;
23185;SDS011;11761;51.324;4.590;2023-02-05T05:45:24;21.63;;;12.48;;
23185;SDS011;11761;51.324;4.590;2023-02-05T05:47:50;22.67;;;12.50;;
23185;SDS011;11761;51.324;4.590;2023-02-05T05:50:16;24.33;;;12.00;;
23185;SDS011;11761;51.324;4.590;2023-02-05T05:52:42;19.45;;;11.23;;
23185;SDS011;11761;51.324;4.590;2023-02-05T05:55:11;24.33;;;11.45;;
23185;SDS011;11761;51.324;4.590;2023-02-05T05:57:37;18.88;;;10.23;;
23185;SDS011;11761;51.324;4.590;2023-02-05T06:00:03;17.15;;;9.60;;
23185;SDS011;11761;51.324;4.590;2023-02-05T06:02:29;15.05;;;8.18;;
23185;SDS011;11761;51.324;4.590;2023-02-05T06:04:55;15.30;;;8.07;;
23185;SDS011;11761;51.324;4.590;2023-02-05T06:07:22;18.35;;;8.10;;
23185;SDS011;11761;51.324;4.590;2023-02-05T06:09:48;14.15;;;7.80;;
23185;SDS011;11761;51.324;4.590;2023-02-05T06:12:13;19.20;;;7.55;;
23185;SDS011;11761;51.324;4.590;2023-02-05T06:14:41;14.25;;;7.38;;
23185;SDS011;11761;51.324;4.590;2023-02-05T06:17:07;16.42;;;7.00;;
23185;SDS011;11761;51.324;4.590;2023-02-05T06:19:33;16.05;;;7.00;;
23185;SDS011;11761;51.324;4.590;2023-02-05T06:21:59;19.88;;;6.55;;
23185;SDS011;11761;51.324;4.590;2023-02-05T06:24:25;11.40;;;5.65;;
23185;SDS011;11761;51.324;4.590;2023-02-05T06:26:51;18.10;;;5.45;;
23185;SDS011;11761;51.324;4.590;2023-02-05T06:29:17;13.88;;;4.88;;
23185;SDS011;11761;51.324;4.590;2023-02-05T06:31:43;9.65;;;4.30;;
23185;SDS011;11761;51.324;4.590;2023-02-05T06:34:10;10.00;;;3.17;;
23185;SDS011;11761;51.324;4.590;2023-02-05T06:36:36;16.85;;;2.90;;
23185;SDS011;11761;51.324;4.590;2023-02-05T06:39:02;11.65;;;2.60;;
23185;SDS011;11761;51.324;4.590;2023-02-05T06:41:28;10.40;;;1.98;;
23185;SDS011;11761;51.324;4.590;2023-02-05T06:43:54;10.05;;;1.95;;
23185;SDS011;11761;51.324;4.590;2023-02-05T06:46:20;14.15;;;1.63;;
23185;SDS011;11761;51.324;4.590;2023-02-05T06:48:46;9.10;;;1.73;;
23185;SDS011;11761;51.324;4.590;2023-02-05T06:51:12;13.13;;;1.83;;
23185;SDS011;11761;51.324;4.590;2023-02-05T06:53:38;7.97;;;1.58;;
23185;SDS011;11761;51.324;4.590;2023-02-05T06:56:04;11.13;;;1.30;;
23185;SDS011;11761;51.324;4.590;2023-02-05T06:58:30;10.02;;;1.42;;
23185;SDS011;11761;51.324;4.590;2023-02-05T07:00:56;8.23;;;1.52;;
23185;SDS011;11761;51.324;4.590;2023-02-05T07:03:22;9.20;;;1.65;;
23185;SDS011;11761;51.324;4.590;2023-02-05T07:05:48;10.63;;;1.40;;
23185;SDS011;11761;51.324;4.590;2023-02-05T07:08:14;13.63;;;1.30;;
23185;SDS011;11761;51.324;4.590;2023-02-05T07:10:40;13.98;;;1.60;;
23185;SDS011;11761;51.324;4.590;2023-02-05T07:13:07;7.47;;;1.30;;
23185;SDS011;11761;51.324;4.590;2023-02-05T07:15:36;9.10;;;1.40;;
23185;SDS011;11761;51.324;4.590;2023-02-05T07:18:02;12.75;;;1.42;;
23185;SDS011;11761;51.324;4.590;2023-02-05T07:20:29;7.88;;;1.52;;
23185;SDS011;11761;51.324;4.590;2023-02-05T07:22:55;19.10;;;1.92;;
23185;SDS011;11761;51.324;4.590;2023-02-05T07:25:21;10.93;;;1.30;;
23185;SDS011;11761;51.324;4.590;2023-02-05T07:27:47;12.75;;;1.35;;
23185;SDS011;11761;51.324;4.590;2023-02-05T07:30:13;8.30;;;1.88;;
23185;SDS011;11761;51.324;4.590;2023-02-05T07:32:40;14.77;;;1.70;;
23185;SDS011;11761;51.324;4.590;2023-02-05T07:35:06;9.73;;;1.77;;
23185;SDS011;11761;51.324;4.590;2023-02-05T07:37:32;11.85;;;1.70;;
23185;SDS011;11761;51.324;4.590;2023-02-05T07:39:59;11.77;;;1.60;;
23185;SDS011;11761;51.324;4.590;2023-02-05T07:42:25;12.48;;;1.90;;
23185;SDS011;11761;51.324;4.590;2023-02-05T07:44:50;11.20;;;1.60;;
23185;SDS011;11761;51.324;4.590;2023-02-05T07:47:17;6.57;;;1.02;;
23185;SDS011;11761;51.324;4.590;2023-02-05T07:49:42;14.30;;;1.80;;
23185;SDS011;11761;51.324;4.590;2023-02-05T07:52:09;13.73;;;1.73;;
23185;SDS011;11761;51.324;4.590;2023-02-05T07:54:34;9.10;;;1.60;;
23185;SDS011;11761;51.324;4.590;2023-02-05T07:57:01;6.53;;;1.60;;
23185;SDS011;11761;51.324;4.590;2023-02-05T07:59:30;11.40;;;1.80;;
23185;SDS011;11761;51.324;4.590;2023-02-05T08:01:56;14.38;;;1.70;;
23185;SDS011;11761;51.324;4.590;2023-02-05T08:04:22;8.77;;;2.05;;
23185;SDS011;11761;51.324;4.590;2023-02-05T08:06:48;16.58;;;2.22;;
23185;SDS011;11761;51.324;4.590;2023-02-05T08:09:14;12.13;;;1.63;;
23185;SDS011;11761;51.324;4.590;2023-02-05T08:11:41;8.48;;;1.95;;
23185;SDS011;11761;51.324;4.590;2023-02-05T08:14:07;12.38;;;1.90;;
23185;SDS011;11761;51.324;4.590;2023-02-05T08:16:33;12.27;;;2.10;;
23185;SDS011;11761;51.324;4.590;2023-02-05T08:18:59;15.38;;;2.40;;
23185;SDS011;11761;51.324;4.590;2023-02-05T08:21:25;9.50;;;2.00;;
23185;SDS011;11761;51.324;4.590;2023-02-05T08:23:51;14.93;;;2.28;;
23185;SDS011;11761;51.324;4.590;2023-02-05T08:26:17;11.60;;;2.03;;
23185;SDS011;11761;51.324;4.590;2023-02-05T08:28:44;10.63;;;1.98;;
23185;SDS011;11761;51.324;4.590;2023-02-05T08:31:12;12.70;;;2.03;;
23185;SDS011;11761;51.324;4.590;2023-02-05T08:33:40;7.75;;;1.60;;
23185;SDS011;11761;51.324;4.590;2023-02-05T08:36:06;17.13;;;2.33;;
23185;SDS011;11761;51.324;4.590;2023-02-05T08:38:36;9.10;;;1.65;;
23185;SDS011;11761;51.324;4.590;2023-02-05T08:41:06;12.50;;;2.00;;
23185;SDS011;11761;51.324;4.590;2023-02-05T08:43:46;16.95;;;2.92;;
23185;SDS011;11761;51.324;4.590;2023-02-05T08:46:17;11.68;;;2.35;;
23185;SDS011;11761;51.324;4.590;2023-02-05T08:48:47;12.88;;;2.38;;
23185;SDS011;11761;51.324;4.590;2023-02-05T08:51:14;13.82;;;2.10;;
23185;SDS011;11761;51.324;4.590;2023-02-05T08:53:40;16.83;;;2.50;;
23185;SDS011;11761;51.324;4.590;2023-02-05T08:56:06;13.07;;;2.25;;
23185;SDS011;11761;51.324;4.590;2023-02-05T08:58:36;15.70;;;2.67;;
23185;SDS011;11761;51.324;4.590;2023-02-05T09:01:04;10.23;;;2.25;;
23185;SDS011;11761;51.324;4.590;2023-02-05T09:03:31;18.02;;;2.42;;
23185;SDS011;11761;51.324;4.590;2023-02-05T09:05:58;13.73;;;2.50;;
23185;SDS011;11761;51.324;4.590;2023-02-05T09:08:26;10.98;;;2.30;;
23185;SDS011;11761;51.324;4.590;2023-02-05T09:10:52;19.05;;;2.70;;
23185;SDS011;11761;51.324;4.590;2023-02-05T09:13:18;11.57;;;2.17;;
23185;SDS011;11761;51.324;4.590;2023-02-05T09:15:46;18.05;;;2.70;;
23185;SDS011;11761;51.324;4.590;2023-02-05T09:18:15;12.85;;;2.38;;
23185;SDS011;11761;51.324;4.590;2023-02-05T09:20:44;18.80;;;3.10;;
23185;SDS011;11761;51.324;4.590;2023-02-05T09:23:13;12.93;;;2.50;;
23185;SDS011;11761;51.324;4.590;2023-02-05T09:25:42;14.40;;;2.60;;
23185;SDS011;11761;51.324;4.590;2023-02-05T09:28:08;12.23;;;3.00;;
23185;SDS011;11761;51.324;4.590;2023-02-05T09:30:37;17.13;;;2.78;;
23185;SDS011;11761;51.324;4.590;2023-02-05T09:33:06;15.15;;;2.40;;
23185;SDS011;11761;51.324;4.590;2023-02-05T09:35:33;19.50;;;2.97;;
23185;SDS011;11761;51.324;4.590;2023-02-05T09:38:01;15.40;;;2.92;;
23185;SDS011;11761;51.324;4.590;2023-02-05T09:49:16;22.90;;;3.53;;
23185;SDS011;11761;51.324;4.590;2023-02-05T09:52:06;19.67;;;3.80;;
23185;SDS011;11761;51.324;4.590;2023-02-05T09:54:53;21.45;;;3.65;;
23185;SDS011;11761;51.324;4.590;2023-02-05T09:57:38;24.05;;;3.88;;
23185;SDS011;11761;51.324;4.590;2023-02-05T10:00:15;21.70;;;3.65;;
23185;SDS011;11761;51.324;4.590;2023-02-05T10:11:33;24.27;;;3.75;;
23185;SDS011;11761;51.324;4.590;2023-02-05T10:17:21;17.40;;;3.28;;
23185;SDS011;11761;51.324;4.590;2023-02-05T10:31:11;14.73;;;2.50;;
23185;SDS011;11761;51.324;4.590;2023-02-05T10:34:32;18.05;;;2.78;;
23185;SDS011;11761;51.324;4.590;2023-02-05T10:36:51;14.40;;;3.00;;
23185;SDS011;11761;51.324;4.590;2023-02-05T10:39:19;12.57;;;2.38;;
23185;SDS011;11761;51.324;4.590;2023-02-05T10:44:33;10.82;;;2.42;;
23185;SDS011;11761;51.324;4.590;2023-02-05T10:47:27;13.15;;;2.55;;
23185;SDS011;11761;51.324;4.590;2023-02-05T10:50:13;13.95;;;2.33;;
23185;SDS011;11761;51.324;4.590;2023-02-05T10:52:40;15.77;;;2.60;;
23185;SDS011;11761;51.324;4.590;2023-02-05T10:55:09;12.15;;;2.47;;
23185;SDS011;11761;51.324;4.590;2023-02-05T10:57:37;13.63;;;2.22;;
23185;SDS011;11761;51.324;4.590;2023-02-05T11:00:05;13.27;;;2.30;;
23185;SDS011;11761;51.324;4.590;2023-02-05T11:02:39;9.98;;;2.40;;
23185;SDS011;11761;51.324;4.590;2023-02-05T11:05:40;25.05;;;2.65;;
23185;SDS011;11761;51.324;4.590;2023-02-05T11:08:01;15.48;;;3.10;;
23185;SDS011;11761;51.324;4.590;2023-02-05T11:10:29;11.43;;;2.05;;
23185;SDS011;11761;51.324;4.590;2023-02-05T11:13:02;14.73;;;2.58;;
23185;SDS011;11761;51.324;4.590;2023-02-05T11:15:52;13.65;;;2.33;;
23185;SDS011;11761;51.324;4.590;2023-02-05T11:18:28;11.30;;;2.58;;
23185;SDS011;11761;51.324;4.590;2023-02-05T11:21:01;14.68;;;2.45;;
23185;SDS011;11761;51.324;4.590;2023-02-05T11:23:28;16.75;;;2.95;;
23185;SDS011;11761;51.324;4.590;2023-02-05T11:25:57;10.40;;;2.30;;
23185;SDS011;11761;51.324;4.590;2023-02-05T11:28:26;11.73;;;2.50;;
23185;SDS011;11761;51.324;4.590;2023-02-05T11:30:56;13.73;;;3.17;;
23185;SDS011;11761;51.324;4.590;2023-02-05T11:33:41;13.82;;;2.75;;
23185;SDS011;11761;51.324;4.590;2023-02-05T11:36:08;11.60;;;2.55;;
23185;SDS011;11761;51.324;4.590;2023-02-05T11:38:52;12.20;;;2.00;;
23185;SDS011;11761;51.324;4.590;2023-02-05T11:41:39;13.43;;;2.30;;
23185;SDS011;11761;51.324;4.590;2023-02-05T11:44:23;11.35;;;2.08;;
23185;SDS011;11761;51.324;4.590;2023-02-05T11:46:52;9.32;;;2.28;;
23185;SDS011;11761;51.324;4.590;2023-02-05T11:49:22;16.83;;;2.40;;
23185;SDS011;11761;51.324;4.590;2023-02-05T11:51:53;16.97;;;2.60;;
23185;SDS011;11761;51.324;4.590;2023-02-05T11:54:30;13.90;;;2.42;;
23185;SDS011;11761;51.324;4.590;2023-02-05T11:56:59;15.77;;;2.58;;
23185;SDS011;11761;51.324;4.590;2023-02-05T11:59:30;12.75;;;2.50;;
23185;SDS011;11761;51.324;4.590;2023-02-05T12:04:51;14.60;;;2.85;;
23185;SDS011;11761;51.324;4.590;2023-02-05T12:07:57;8.65;;;2.20;;
23185;SDS011;11761;51.324;4.590;2023-02-05T12:22:01;8.35;;;2.05;;
23185;SDS011;11761;51.324;4.590;2023-02-05T12:24:48;18.08;;;2.88;;
23185;SDS011;11761;51.324;4.590;2023-02-05T12:32:30;18.33;;;3.10;;
23185;SDS011;11761;51.324;4.590;2023-02-05T12:37:49;11.90;;;2.35;;
23185;SDS011;11761;51.324;4.590;2023-02-05T12:51:26;12.82;;;2.28;;
23185;SDS011;11761;51.324;4.590;2023-02-05T13:03:04;8.25;;;2.15;;
23185;SDS011;11761;51.324;4.590;2023-02-05T13:06:01;12.57;;;2.50;;
23185;SDS011;11761;51.324;4.590;2023-02-05T13:13:45;13.30;;;1.85;;
23185;SDS011;11761;51.324;4.590;2023-02-05T13:16:18;15.32;;;2.00;;
23185;SDS011;11761;51.324;4.590;2023-02-05T13:19:00;9.95;;;2.03;;
23185;SDS011;11761;51.324;4.590;2023-02-05T13:21:32;7.35;;;2.10;;
23185;SDS011;11761;51.324;4.590;2023-02-05T13:24:22;8.93;;;1.85;;
23185;SDS011;11761;51.324;4.590;2023-02-05T13:27:16;7.22;;;1.77;;
23185;SDS011;11761;51.324;4.590;2023-02-05T13:30:07;9.68;;;1.63;;
23185;SDS011;11761;51.324;4.590;2023-02-05T13:35:06;11.77;;;2.10;;
23185;SDS011;11761;51.324;4.590;2023-02-05T13:40:23;8.40;;;1.90;;
23185;SDS011;11761;51.324;4.590;2023-02-05T13:46:07;14.15;;;2.58;;
23185;SDS011;11761;51.324;4.590;2023-02-05T13:48:51;14.05;;;2.42;;
23185;SDS011;11761;51.324;4.590;2023-02-05T13:51:41;7.60;;;1.90;;
23185;SDS011;11761;51.324;4.590;2023-02-05T14:00:21;7.72;;;1.63;;
23185;SDS011;11761;51.324;4.590;2023-02-05T14:02:53;6.65;;;2.22;;
23185;SDS011;11761;51.324;4.590;2023-02-05T14:05:27;8.27;;;1.77;;
23185;SDS011;11761;51.324;4.590;2023-02-05T14:07:55;11.65;;;1.88;;
23185;SDS011;11761;51.324;4.590;2023-02-05T14:15:53;9.40;;;1.92;;
23185;SDS011;11761;51.324;4.590;2023-02-05T14:23:57;10.48;;;2.58;;
23185;SDS011;11761;51.324;4.590;2023-02-05T14:26:45;12.05;;;2.30;;
23185;SDS011;11761;51.324;4.590;2023-02-05T14:32:05;11.98;;;2.00;;
23185;SDS011;11761;51.324;4.590;2023-02-05T14:36:59;8.70;;;1.42;;
23185;SDS011;11761;51.324;4.590;2023-02-05T14:39:32;8.35;;;1.83;;
23185;SDS011;11761;51.324;4.590;2023-02-05T14:42:01;11.65;;;1.85;;
23185;SDS011;11761;51.324;4.590;2023-02-05T14:46:59;16.40;;;1.88;;
23185;SDS011;11761;51.324;4.590;2023-02-05T14:49:45;10.73;;;2.03;;
23185;SDS011;11761;51.324;4.590;2023-02-05T14:52:18;13.10;;;2.10;;
23185;SDS011;11761;51.324;4.590;2023-02-05T14:54:49;12.05;;;1.85;;
23185;SDS011;11761;51.324;4.590;2023-02-05T15:08:27;18.80;;;2.08;;
23185;SDS011;11761;51.324;4.590;2023-02-05T15:19:30;19.17;;;2.25;;
23185;SDS011;11761;51.324;4.590;2023-02-05T15:21:59;13.20;;;2.17;;
23185;SDS011;11761;51.324;4.590;2023-02-05T15:24:27;7.93;;;2.08;;
23185;SDS011;11761;51.324;4.590;2023-02-05T15:27:13;13.07;;;2.08;;
23185;SDS011;11761;51.324;4.590;2023-02-05T15:37:18;12.73;;;2.47;;
23185;SDS011;11761;51.324;4.590;2023-02-05T15:40:11;12.95;;;2.15;;
23185;SDS011;11761;51.324;4.590;2023-02-05T15:42:44;13.75;;;2.50;;
23185;SDS011;11761;51.324;4.590;2023-02-05T15:50:34;15.45;;;2.63;;
23185;SDS011;11761;51.324;4.590;2023-02-05T15:53:29;15.10;;;3.05;;
23185;SDS011;11761;51.324;4.590;2023-02-05T15:56:22;15.63;;;2.45;;
23185;SDS011;11761;51.324;4.590;2023-02-05T16:01:30;16.58;;;2.65;;
23185;SDS011;11761;51.324;4.590;2023-02-05T16:03:58;11.93;;;2.15;;
23185;SDS011;11761;51.324;4.590;2023-02-05T16:06:27;9.95;;;2.10;;
23185;SDS011;11761;51.324;4.590;2023-02-05T16:08:58;13.52;;;2.20;;
23185;SDS011;11761;51.324;4.590;2023-02-05T16:11:33;12.90;;;2.80;;
23185;SDS011;11761;51.324;4.590;2023-02-05T16:14:09;17.92;;;2.40;;
23185;SDS011;11761;51.324;4.590;2023-02-05T16:16:38;14.63;;;2.33;;
23185;SDS011;11761;51.324;4.590;2023-02-05T16:19:27;19.75;;;3.10;;
23185;SDS011;11761;51.324;4.590;2023-02-05T16:21:59;15.57;;;2.53;;
23185;SDS011;11761;51.324;4.590;2023-02-05T16:24:36;11.88;;;2.70;;
23185;SDS011;11761;51.324;4.590;2023-02-05T16:27:08;16.48;;;2.92;;
23185;SDS011;11761;51.324;4.590;2023-02-05T16:29:40;18.40;;;2.95;;
23185;SDS011;11761;51.324;4.590;2023-02-05T16:32:25;14.15;;;2.45;;
23185;SDS011;11761;51.324;4.590;2023-02-05T16:34:56;13.27;;;2.40;;
23185;SDS011;11761;51.324;4.590;2023-02-05T16:37:26;20.90;;;2.80;;
23185;SDS011;11761;51.324;4.590;2023-02-05T16:39:57;11.52;;;2.33;;
23185;SDS011;11761;51.324;4.590;2023-02-05T16:42:28;26.73;;;3.75;;
23185;SDS011;11761;51.324;4.590;2023-02-05T16:47:31;14.38;;;2.28;;
23185;SDS011;11761;51.324;4.590;2023-02-05T16:49:58;17.02;;;3.03;;
23185;SDS011;11761;51.324;4.590;2023-02-05T16:57:41;14.45;;;2.90;;
23185;SDS011;11761;51.324;4.590;2023-02-05T17:02:44;14.82;;;2.97;;
23185;SDS011;11761;51.324;4.590;2023-02-05T17:05:20;20.77;;;2.97;;
23185;SDS011;11761;51.324;4.590;2023-02-05T17:07:59;17.40;;;3.10;;
23185;SDS011;11761;51.324;4.590;2023-02-05T17:10:27;13.38;;;3.30;;
23185;SDS011;11761;51.324;4.590;2023-02-05T17:17:52;24.15;;;3.80;;
23185;SDS011;11761;51.324;4.590;2023-02-05T17:20:25;16.05;;;3.70;;
23185;SDS011;11761;51.324;4.590;2023-02-05T17:25:31;17.67;;;3.30;;
23185;SDS011;11761;51.324;4.590;2023-02-05T17:28:04;23.23;;;3.90;;
23185;SDS011;11761;51.324;4.590;2023-02-05T17:33:05;22.95;;;3.42;;
23185;SDS011;11761;51.324;4.590;2023-02-05T17:35:33;23.27;;;3.60;;
23185;SDS011;11761;51.324;4.590;2023-02-05T17:37:59;23.77;;;3.40;;
23185;SDS011;11761;51.324;4.590;2023-02-05T17:40:25;26.48;;;4.13;;
23185;SDS011;11761;51.324;4.590;2023-02-05T17:42:52;27.67;;;4.07;;
23185;SDS011;11761;51.324;4.590;2023-02-05T17:45:20;22.73;;;3.70;;
23185;SDS011;11761;51.324;4.590;2023-02-05T17:47:48;17.08;;;3.55;;
23185;SDS011;11761;51.324;4.590;2023-02-05T17:50:15;22.88;;;3.25;;
23185;SDS011;11761;51.324;4.590;2023-02-05T17:52:49;22.00;;;3.78;;
23185;SDS011;11761;51.324;4.590;2023-02-05T17:55:17;28.85;;;3.50;;
23185;SDS011;11761;51.324;4.590;2023-02-05T17:57:46;19.45;;;3.13;;
23185;SDS011;11761;51.324;4.590;2023-02-05T18:00:15;24.92;;;4.00;;
23185;SDS011;11761;51.324;4.590;2023-02-05T18:05:11;25.88;;;3.97;;
23185;SDS011;11761;51.324;4.590;2023-02-05T18:10:13;23.58;;;4.13;;